createdAt,value
2022-11-09T00:01:06.661Z,13.99
2022-11-09T00:03:46.827Z,13.97
2022-11-09T00:06:26.951Z,13.93
2022-11-09T00:09:10.484Z,13.93
2022-11-09T00:11:51.043Z,13.93
2022-11-09T00:14:30.896Z,14.05
2022-11-09T00:17:12.331Z,14.12
2022-11-09T00:19:53.689Z,14.08
2022-11-09T00:22:35.064Z,14.08
2022-11-09T00:25:14.919Z,14.02
2022-11-09T00:27:56.256Z,14.04
2022-11-09T00:30:39.281Z,14.05
2022-11-09T00:33:19.446Z,14.05
2022-11-09T00:36:00.615Z,14.03
2022-11-09T00:38:42.459Z,14.03
2022-11-09T00:41:25.572Z,14.02
2022-11-09T00:44:18.161Z,13.93
2022-11-09T00:47:01.530Z,13.89
2022-11-09T00:49:44.474Z,13.89
2022-11-09T00:52:23.559Z,13.88
2022-11-09T00:55:03.726Z,13.87
2022-11-09T00:57:45.113Z,13.88
2022-11-09T01:00:26.591Z,13.91
2022-11-09T01:03:07.993Z,13.92
2022-11-09T01:05:49.386Z,13.89
2022-11-09T01:08:30.825Z,13.88
2022-11-09T01:11:12.387Z,13.91
2022-11-09T01:13:55.704Z,13.94
2022-11-09T01:16:37.027Z,13.99
2022-11-09T01:19:17.999Z,14.05
2022-11-09T01:21:59.425Z,14.10
2022-11-09T01:24:42.409Z,14.11
2022-11-09T01:27:22.231Z,14.05
2022-11-09T01:30:00.109Z,14.07
2022-11-09T01:32:38.314Z,14.06
2022-11-09T01:35:22.080Z,13.90
2022-11-09T01:38:05.479Z,13.87
2022-11-09T01:40:47.632Z,13.84
2022-11-09T01:43:27.493Z,13.84
2022-11-09T01:46:10.930Z,13.86
2022-11-09T01:48:53.562Z,13.83
2022-11-09T01:51:54.816Z,13.85
2022-11-09T01:55:00.304Z,13.86
2022-11-09T01:57:42.786Z,13.89
2022-11-09T02:00:24.106Z,13.86
2022-11-09T02:03:06.275Z,13.84
2022-11-09T02:05:50.313Z,13.85
2022-11-09T02:08:31.420Z,13.84
2022-11-09T02:11:13.198Z,13.81
2022-11-09T02:13:54.804Z,13.79
2022-11-09T02:16:35.612Z,13.82
2022-11-09T02:19:16.943Z,13.78
2022-11-09T02:21:54.819Z,13.78
2022-11-09T02:24:38.156Z,13.76
2022-11-09T02:27:17.997Z,13.90
2022-11-09T02:29:59.382Z,13.89
2022-11-09T02:32:39.236Z,13.89
2022-11-09T02:35:19.006Z,13.82
2022-11-09T02:38:02.432Z,13.86
2022-11-09T02:40:42.956Z,13.82
2022-11-09T02:43:25.361Z,13.78
2022-11-09T02:46:10.348Z,13.81
2022-11-09T02:48:48.949Z,13.78
2022-11-09T02:51:29.019Z,13.76
2022-11-09T02:54:08.924Z,13.79
2022-11-09T02:56:50.267Z,13.75
2022-11-09T02:59:33.661Z,13.75
2022-11-09T03:02:14.766Z,13.69
2022-11-09T03:04:54.134Z,13.63
2022-11-09T03:07:34.280Z,13.62
2022-11-09T03:10:14.080Z,13.60
2022-11-09T03:12:56.162Z,13.75
2022-11-09T03:15:38.721Z,13.77
2022-11-09T03:18:23.537Z,13.77
2022-11-09T03:21:04.745Z,13.76
2022-11-09T03:23:45.994Z,13.72
2022-11-09T03:26:27.430Z,13.61
2022-11-09T03:29:09.088Z,13.58
2022-11-09T03:31:48.197Z,13.55
2022-11-09T03:34:30.379Z,13.53
2022-11-09T03:37:14.507Z,13.52
2022-11-09T03:39:56.347Z,13.50
2022-11-09T03:42:37.447Z,13.47
2022-11-09T03:45:20.954Z,13.48
2022-11-09T03:48:01.788Z,13.41
2022-11-09T03:50:41.660Z,13.43
2022-11-09T03:53:23.193Z,13.50
2022-11-09T03:56:04.418Z,13.52
2022-11-09T03:58:44.214Z,13.44
2022-11-09T04:01:24.131Z,13.38
2022-11-09T04:04:08.480Z,13.44
2022-11-09T04:06:50.489Z,13.46
2022-11-09T04:09:30.571Z,13.46
2022-11-09T04:12:11.282Z,13.50
2022-11-09T04:14:53.374Z,13.46
2022-11-09T04:17:34.141Z,13.44
2022-11-09T04:20:15.603Z,13.44
2022-11-09T04:22:57.445Z,13.47
2022-11-09T04:25:36.939Z,13.44
2022-11-09T04:28:18.104Z,13.47
2022-11-09T04:31:00.516Z,13.43
2022-11-09T04:33:41.111Z,13.43
2022-11-09T04:36:22.488Z,13.40
2022-11-09T04:39:03.823Z,13.38
2022-11-09T04:41:47.153Z,13.33
2022-11-09T04:44:30.255Z,13.33
2022-11-09T04:47:11.154Z,13.29
2022-11-09T04:49:50.967Z,13.29
2022-11-09T04:52:32.965Z,13.23
2022-11-09T04:55:13.796Z,13.19
2022-11-09T04:57:55.610Z,13.18
2022-11-09T05:00:36.636Z,13.12
2022-11-09T05:03:16.774Z,13.10
2022-11-09T05:05:57.894Z,13.08
2022-11-09T05:08:39.192Z,13.08
2022-11-09T05:11:19.224Z,13.04
2022-11-09T05:14:00.515Z,12.99
2022-11-09T05:16:43.887Z,13.01
2022-11-09T05:19:26.839Z,12.99
2022-11-09T05:22:21.877Z,12.98
2022-11-09T05:25:04.083Z,12.96
2022-11-09T05:27:45.073Z,12.92
2022-11-09T05:30:25.046Z,12.90
2022-11-09T05:33:06.410Z,12.87
2022-11-09T05:35:45.809Z,12.83
2022-11-09T05:38:27.307Z,12.79
2022-11-09T05:41:09.394Z,12.78
2022-11-09T05:43:50.401Z,12.73
2022-11-09T05:46:33.314Z,12.69
2022-11-09T05:49:15.128Z,12.70
2022-11-09T05:51:56.620Z,12.75
2022-11-09T05:54:35.618Z,12.71
2022-11-09T05:57:15.853Z,12.69
2022-11-09T05:59:55.231Z,12.69
2022-11-09T06:02:35.439Z,12.69
2022-11-09T06:05:17.086Z,12.66
2022-11-09T06:07:58.200Z,12.68
2022-11-09T06:10:38.041Z,12.67
2022-11-09T06:13:18.160Z,12.64
2022-11-09T06:15:57.791Z,12.66
2022-11-09T06:18:41.054Z,12.69
2022-11-09T06:21:22.069Z,12.65
2022-11-09T06:24:05.598Z,12.64
2022-11-09T06:26:46.437Z,12.62
2022-11-09T06:29:26.279Z,12.56
2022-11-09T06:32:06.339Z,12.57
2022-11-09T06:34:49.757Z,12.55
2022-11-09T06:37:33.476Z,12.49
2022-11-09T06:40:14.640Z,12.47
2022-11-09T06:42:59.012Z,12.47
2022-11-09T06:45:39.552Z,12.45
2022-11-09T06:48:21.032Z,12.47
2022-11-09T06:51:02.832Z,12.49
2022-11-09T06:53:43.749Z,12.50
2022-11-09T06:56:23.531Z,12.48
2022-11-09T06:59:05.344Z,12.51
2022-11-09T07:01:44.486Z,12.50
2022-11-09T07:04:26.671Z,12.52
2022-11-09T07:07:26.424Z,12.52
2022-11-09T07:10:07.374Z,12.60
2022-11-09T07:12:49.031Z,12.62
2022-11-09T07:15:32.153Z,12.64
2022-11-09T07:18:13.351Z,12.67
2022-11-09T07:20:54.460Z,12.70
2022-11-09T07:23:49.951Z,12.72
2022-11-09T07:26:30.678Z,12.77
2022-11-09T07:29:13.933Z,12.77
2022-11-09T07:31:57.067Z,12.79
2022-11-09T07:34:37.993Z,12.77
2022-11-09T07:37:18.782Z,12.78
2022-11-09T07:39:59.845Z,12.78
2022-11-09T07:42:54.792Z,12.78
2022-11-09T07:45:37.535Z,12.78
2022-11-09T07:48:20.401Z,12.78
2022-11-09T07:51:03.607Z,12.78
2022-11-09T07:53:44.414Z,12.77
2022-11-09T07:56:24.225Z,12.80
2022-11-09T07:59:04.025Z,12.80
2022-11-09T08:01:43.903Z,12.84
2022-11-09T08:04:25.324Z,12.87
2022-11-09T08:07:06.818Z,12.88
2022-11-09T08:09:50.052Z,12.89
2022-11-09T08:12:37.105Z,12.90
2022-11-09T08:15:17.333Z,12.94
2022-11-09T08:18:01.483Z,12.98
2022-11-09T08:20:41.659Z,12.96
2022-11-09T08:23:23.359Z,12.96
2022-11-09T08:26:06.187Z,13.01
2022-11-09T08:28:47.492Z,13.02
2022-11-09T08:31:27.579Z,13.08
2022-11-09T08:34:11.196Z,13.10
2022-11-09T08:36:51.763Z,13.12
2022-11-09T08:39:31.511Z,13.19
2022-11-09T08:42:11.388Z,13.23
2022-11-09T08:44:52.768Z,13.32
2022-11-09T08:47:34.467Z,13.35
2022-11-09T08:50:17.599Z,13.40
2022-11-09T09:03:23.405Z,13.68
2022-11-09T09:06:08.805Z,13.71
2022-11-09T09:08:49.199Z,13.75
2022-11-09T09:11:30.761Z,13.86
2022-11-09T09:14:11.914Z,13.90
2022-11-09T09:16:51.736Z,13.94
2022-11-09T09:19:34.682Z,14.00
2022-11-09T09:22:14.579Z,14.10
2022-11-09T09:24:54.462Z,14.11
2022-11-09T09:27:35.974Z,14.18
2022-11-09T09:30:17.395Z,14.25
2022-11-09T09:33:00.909Z,14.26
2022-11-09T09:35:41.596Z,14.33
2022-11-09T09:38:23.594Z,14.43
2022-11-09T09:41:05.093Z,14.44
2022-11-09T09:43:46.371Z,14.48
2022-11-09T09:46:27.818Z,14.61
2022-11-09T09:49:10.521Z,14.57
2022-11-09T09:51:55.079Z,14.62
2022-11-09T09:54:36.770Z,14.66
2022-11-09T09:57:20.455Z,14.80
2022-11-09T10:00:01.791Z,14.94
2022-11-09T10:02:53.726Z,14.99
2022-11-09T10:05:38.847Z,15.01
2022-11-09T10:08:20.471Z,15.17
2022-11-09T10:11:02.604Z,15.22
2022-11-09T10:13:48.286Z,15.27
2022-11-09T10:16:29.171Z,15.32
2022-11-09T10:19:29.286Z,15.41
2022-11-09T10:22:16.057Z,15.42
2022-11-09T10:25:20.817Z,15.48
2022-11-09T10:28:00.784Z,15.46
2022-11-09T10:30:41.966Z,15.48
2022-11-09T10:33:23.234Z,15.43
2022-11-09T10:36:08.485Z,15.50
2022-11-09T10:38:48.262Z,15.48
2022-11-09T10:41:48.281Z,15.70
2022-11-09T10:44:47.198Z,15.91
2022-11-09T10:47:50.120Z,15.88
2022-11-09T10:50:49.222Z,16.24
2022-11-09T10:53:47.107Z,16.61
2022-11-09T10:57:05.381Z,16.93
2022-11-09T11:00:27.565Z,17.25
2022-11-09T11:03:26.041Z,17.49
2022-11-09T11:06:31.296Z,17.59
2022-11-09T11:09:32.434Z,17.83
2022-11-09T11:12:33.093Z,17.57
2022-11-09T11:15:36.665Z,17.78
2022-11-09T11:18:49.325Z,17.67
2022-11-09T11:21:47.856Z,17.34
2022-11-09T11:24:47.884Z,17.26
2022-11-09T11:27:48.865Z,17.10
2022-11-09T11:30:48.065Z,16.96
2022-11-09T11:33:49.364Z,16.82
2022-11-09T11:36:52.859Z,16.72
2022-11-09T11:39:57.562Z,16.86
2022-11-09T11:43:19.064Z,16.91
2022-11-09T11:46:42.391Z,17.17
2022-11-09T11:49:47.614Z,17.28
2022-11-09T11:53:06.665Z,17.38
2022-11-09T11:56:16.602Z,17.57
2022-11-09T11:59:34.416Z,17.53
2022-11-09T12:02:56.524Z,17.66
2022-11-09T12:05:59.730Z,17.90
2022-11-09T12:09:08.930Z,17.89
2022-11-09T12:12:13.783Z,17.51
2022-11-09T12:15:19.663Z,17.46
2022-11-09T12:18:22.390Z,17.21
2022-11-09T12:21:24.146Z,17.17
2022-11-09T12:24:27.563Z,17.34
2022-11-09T12:27:34.906Z,17.32
2022-11-09T12:30:40.922Z,17.32
2022-11-09T12:33:46.052Z,17.35
2022-11-09T12:36:45.855Z,17.40
2022-11-09T12:39:47.666Z,17.48
2022-11-09T12:42:49.491Z,17.53
2022-11-09T12:45:50.132Z,17.37
2022-11-09T12:48:50.668Z,17.36
2022-11-09T12:51:49.221Z,17.53
2022-11-09T12:54:48.864Z,17.41
2022-11-09T12:57:49.273Z,17.51
2022-11-09T13:00:51.282Z,17.56
2022-11-09T13:03:55.090Z,17.39
2022-11-09T13:07:13.596Z,17.47
2022-11-09T13:10:23.026Z,17.42
2022-11-09T13:13:23.796Z,17.52
2022-11-09T13:16:36.187Z,17.50
2022-11-09T13:19:52.483Z,17.65
2022-11-09T13:23:00.331Z,17.52
2022-11-09T13:26:02.048Z,17.38
2022-11-09T13:29:16.834Z,17.24
2022-11-09T13:32:36.336Z,17.13
2022-11-09T13:35:55.483Z,17.09
2022-11-09T13:39:12.653Z,16.92
2022-11-09T13:42:22.752Z,16.66
2022-11-09T13:45:33.217Z,16.47
2022-11-09T13:48:50.001Z,16.44
2022-11-09T13:51:48.764Z,16.32
2022-11-09T13:54:47.744Z,16.22
2022-11-09T13:57:47.036Z,16.11
2022-11-09T14:00:47.994Z,16.05
2022-11-09T14:03:51.053Z,15.94
2022-11-09T14:06:50.297Z,15.80
2022-11-09T14:09:53.804Z,15.79
2022-11-09T14:13:00.331Z,15.71
2022-11-09T14:16:02.192Z,15.62
2022-11-09T14:19:07.423Z,15.57
2022-11-09T14:22:12.242Z,15.56
2022-11-09T14:25:16.916Z,15.40
2022-11-09T14:28:23.526Z,15.35
2022-11-09T14:31:25.023Z,15.37
2022-11-09T14:34:24.672Z,15.30
2022-11-09T14:37:23.480Z,15.21
2022-11-09T14:40:32.937Z,15.18
2022-11-09T14:43:33.700Z,15.17
2022-11-09T14:46:43.849Z,14.97
2022-11-09T14:49:42.720Z,14.95
2022-11-09T14:52:41.708Z,14.95
2022-11-09T14:55:41.300Z,14.86
2022-11-09T14:58:43.594Z,14.80
2022-11-09T15:01:43.543Z,14.78
2022-11-09T15:04:55.831Z,14.64
2022-11-09T15:07:54.327Z,14.64
2022-11-09T15:10:53.713Z,14.50
2022-11-09T15:13:54.377Z,14.44
2022-11-09T15:16:53.755Z,14.41
2022-11-09T15:19:56.224Z,14.34
2022-11-09T15:22:56.247Z,14.26
2022-11-09T15:25:57.799Z,14.16
2022-11-09T15:29:00.007Z,14.13
2022-11-09T15:32:02.290Z,14.01
2022-11-09T15:35:03.449Z,13.95
2022-11-09T15:38:03.067Z,13.89
2022-11-09T15:41:02.898Z,13.81
2022-11-09T15:44:01.629Z,13.79
2022-11-09T15:47:00.631Z,13.72
2022-11-09T15:50:02.063Z,13.60
2022-11-09T15:53:02.092Z,13.56
2022-11-09T15:56:01.125Z,13.46
2022-11-09T15:59:01.852Z,13.44
2022-11-09T16:02:02.478Z,13.36
2022-11-09T16:05:01.055Z,13.26
2022-11-09T16:08:01.095Z,13.18
2022-11-09T16:11:20.007Z,13.11
2022-11-09T16:14:21.459Z,13.07
2022-11-09T16:17:23.138Z,13.00
2022-11-09T16:20:21.726Z,12.92
2022-11-09T16:23:21.736Z,12.87
2022-11-09T16:26:40.555Z,12.87
2022-11-09T16:29:41.548Z,12.83
2022-11-09T16:32:42.162Z,12.83
2022-11-09T16:35:42.735Z,12.89
2022-11-09T16:38:41.757Z,12.93
2022-11-09T16:41:42.734Z,12.90
2022-11-09T16:44:43.199Z,12.91
2022-11-09T16:47:43.476Z,12.91
2022-11-09T16:50:42.191Z,12.93
2022-11-09T16:53:51.294Z,12.92
2022-11-09T16:56:50.782Z,12.95
2022-11-09T16:59:52.742Z,12.98
2022-11-09T17:02:53.312Z,13.01
2022-11-09T17:05:55.421Z,13.06
2022-11-09T17:08:57.775Z,13.09
2022-11-09T17:11:59.836Z,13.14
2022-11-09T17:14:58.443Z,13.07
2022-11-09T17:17:59.485Z,13.06
2022-11-09T17:20:58.064Z,13.04
2022-11-09T17:23:57.372Z,13.05
2022-11-09T17:26:56.076Z,13.01
2022-11-09T17:29:55.061Z,13.00
2022-11-09T17:33:03.981Z,12.95
2022-11-09T17:36:05.591Z,12.90
2022-11-09T17:39:07.179Z,12.84
2022-11-09T17:42:05.860Z,12.79
2022-11-09T17:45:08.224Z,12.70
2022-11-09T17:48:08.139Z,12.71
2022-11-09T17:51:09.719Z,12.73
2022-11-09T17:54:11.843Z,12.74
2022-11-09T17:57:12.564Z,12.76
2022-11-09T18:00:15.364Z,12.77
2022-11-09T18:03:14.775Z,12.78
2022-11-09T18:06:16.491Z,12.80
2022-11-09T18:09:40.414Z,12.76
2022-11-09T18:12:35.871Z,12.70
2022-11-09T18:15:38.475Z,12.70
2022-11-09T18:18:40.587Z,12.66
2022-11-09T18:21:39.214Z,12.61
2022-11-09T18:24:40.202Z,12.58
2022-11-09T18:27:40.783Z,12.51
2022-11-09T18:30:41.530Z,12.47
2022-11-09T18:33:39.877Z,12.49
2022-11-09T18:36:39.051Z,12.45
2022-11-09T18:39:38.028Z,12.43
2022-11-09T18:42:37.239Z,12.38
2022-11-09T18:45:36.031Z,12.33
2022-11-09T18:48:35.714Z,12.33
2022-11-09T18:51:35.660Z,12.32
2022-11-09T18:54:37.659Z,12.24
2022-11-09T18:57:38.951Z,12.23
2022-11-09T19:00:39.068Z,12.23
2022-11-09T19:03:38.084Z,12.20
2022-11-09T19:06:35.525Z,12.17
2022-11-09T19:09:44.668Z,12.19
2022-11-09T19:12:43.315Z,12.19
2022-11-09T19:15:44.350Z,12.13
2022-11-09T19:18:42.912Z,12.14
2022-11-09T19:21:44.521Z,12.14
2022-11-09T19:24:44.188Z,12.10
2022-11-09T19:27:48.184Z,12.10
2022-11-09T19:30:49.011Z,12.04
2022-11-09T19:33:49.711Z,12.00
2022-11-09T19:36:50.390Z,12.03
2022-11-09T19:39:50.678Z,12.02
2022-11-09T19:42:49.405Z,11.99
2022-11-09T19:45:50.396Z,11.96
2022-11-09T19:49:11.802Z,12.00
2022-11-09T19:52:10.540Z,12.03
2022-11-09T19:55:09.901Z,12.03
2022-11-09T19:58:10.495Z,12.00
2022-11-09T20:01:30.283Z,12.00
2022-11-09T20:04:33.070Z,11.98
2022-11-09T20:07:33.747Z,12.00
2022-11-09T20:10:37.741Z,11.94
2022-11-09T20:13:37.849Z,11.97
2022-11-09T20:16:38.385Z,11.99
2022-11-09T20:19:40.316Z,11.95
2022-11-09T20:22:40.936Z,12.03
2022-11-09T20:25:39.517Z,12.03
2022-11-09T20:28:40.512Z,12.04
2022-11-09T20:31:39.296Z,12.04
2022-11-09T20:34:38.219Z,12.05
2022-11-09T20:37:38.275Z,12.07
2022-11-09T20:40:37.716Z,12.09
2022-11-09T20:43:37.970Z,12.13
2022-11-09T20:46:39.566Z,12.14
2022-11-09T20:49:42.556Z,12.09
2022-11-09T20:52:41.749Z,12.12
2022-11-09T20:55:42.023Z,12.08
2022-11-09T20:58:41.452Z,12.07
2022-11-09T21:01:42.473Z,12.03
2022-11-09T21:04:44.114Z,12.00
2022-11-09T21:07:43.990Z,12.00
2022-11-09T21:10:45.902Z,11.98
2022-11-09T21:13:46.003Z,11.95
2022-11-09T21:16:45.031Z,11.97
2022-11-09T21:19:44.044Z,11.93
2022-11-09T21:22:59.942Z,11.92
2022-11-09T21:26:19.296Z,11.88
2022-11-09T21:29:37.851Z,11.86
2022-11-09T21:32:40.096Z,11.86
2022-11-09T21:35:40.189Z,11.86
2022-11-09T21:38:39.026Z,11.81
2022-11-09T21:41:38.185Z,11.78
2022-11-09T21:44:36.896Z,11.70
2022-11-09T21:47:37.292Z,11.67
2022-11-09T21:50:55.726Z,11.67
2022-11-09T21:53:56.751Z,11.63
2022-11-09T21:56:53.503Z,11.61
2022-11-09T21:59:54.753Z,11.64
2022-11-09T22:02:53.355Z,11.63
2022-11-09T22:05:52.402Z,11.64
2022-11-09T22:08:53.409Z,11.58
2022-11-09T22:12:09.374Z,11.64
2022-11-09T22:15:28.024Z,11.60
2022-11-09T22:19:05.133Z,11.61
2022-11-09T22:22:06.162Z,11.62
2022-11-09T22:25:05.178Z,11.68
2022-11-09T22:28:06.005Z,11.71
2022-11-09T22:31:04.587Z,11.73
2022-11-09T22:34:03.639Z,11.76
2022-11-09T22:37:03.427Z,11.78
2022-11-09T22:40:03.039Z,11.76
2022-11-09T22:43:02.041Z,11.84
2022-11-09T22:46:23.853Z,11.85
2022-11-09T22:49:22.771Z,11.86
2022-11-09T22:52:21.461Z,11.87
2022-11-09T22:55:30.298Z,11.86
2022-11-09T22:58:31.304Z,11.87
2022-11-09T23:01:31.945Z,11.88
2022-11-09T23:04:32.463Z,11.89
2022-11-09T23:07:31.145Z,11.87
2022-11-09T23:10:32.174Z,11.88
2022-11-09T23:13:32.781Z,11.90
2022-11-09T23:16:33.012Z,11.91
2022-11-09T23:19:54.745Z,11.87
2022-11-09T23:23:03.481Z,11.86
2022-11-09T23:26:25.119Z,11.82
2022-11-09T23:29:35.354Z,11.80
2022-11-09T23:32:36.372Z,11.78
2022-11-09T23:35:35.055Z,11.71
2022-11-09T23:38:34.521Z,11.68
2022-11-09T23:41:34.556Z,11.62
2022-11-09T23:44:33.607Z,11.54
2022-11-09T23:47:32.591Z,11.55
2022-11-09T23:50:31.604Z,11.43
2022-11-09T23:53:31.108Z,11.41
2022-11-09T23:56:33.478Z,11.37
2022-11-09T23:59:33.383Z,11.30
